createdAt,value
2019-04-23T00:02:39.499Z,92.90
2019-04-23T00:23:06.123Z,91.00
2019-04-23T00:33:12.379Z,90.70
2019-04-23T00:53:23.496Z,90.10
2019-04-23T01:03:25.205Z,89.70
2019-04-23T01:13:45.674Z,90.20
2019-04-23T01:23:47.095Z,90.70
2019-04-23T01:34:20.927Z,90.90
2019-04-23T01:44:30.204Z,91.00
2019-04-23T01:54:30.439Z,91.20
2019-04-23T02:04:36.552Z,91.00
2019-04-23T02:14:43.369Z,90.90
2019-04-23T02:24:57.288Z,90.60
2019-04-23T02:45:10.329Z,90.10
2019-04-23T02:55:21.477Z,90.10
2019-04-23T03:05:21.036Z,90.10
2019-04-23T03:25:59.726Z,90.10
2019-04-23T03:46:26.210Z,89.40
2019-04-23T03:56:22.518Z,84.50
2019-04-23T04:06:37.678Z,78.90
2019-04-23T04:16:34.249Z,73.70
2019-04-23T04:36:58.410Z,62.60
2019-04-23T04:46:53.952Z,59.40
2019-04-23T04:57:07.710Z,57.10
2019-04-23T05:07:08.679Z,54.70
2019-04-23T05:17:49.393Z,53.30
2019-04-23T05:27:37.538Z,51.60
2019-04-23T05:38:08.676Z,50.70
2019-04-23T05:58:19.874Z,49.40
2019-04-23T06:08:07.870Z,48.70
2019-04-23T06:18:17.099Z,48.60
2019-04-23T06:28:24.142Z,48.10
2019-04-23T06:48:35.493Z,47.20
2019-04-23T06:58:37.365Z,47.40
2019-04-23T07:18:57.561Z,48.50
2019-04-23T07:29:03.437Z,47.80
2019-04-23T07:39:35.597Z,48.30
2019-04-23T07:49:26.567Z,48.70
2019-04-23T07:59:33.293Z,49.70
2019-04-23T08:29:54.408Z,52.10
2019-04-23T08:40:01.446Z,52.30
2019-04-23T08:50:23.335Z,52.10
2019-04-23T09:00:14.454Z,51.60
2019-04-23T09:10:27.713Z,52.40
2019-04-23T09:20:27.716Z,51.20
2019-04-23T09:30:38.780Z,51.50
2019-04-23T09:41:17.676Z,52.00
2019-04-23T09:51:30.864Z,51.90
2019-04-23T10:01:26.657Z,53.20
2019-04-23T10:11:09.295Z,53.50
2019-04-23T10:21:15.607Z,49.90
2019-04-23T10:31:22.763Z,48.80
2019-04-23T10:41:29.075Z,48.70
2019-04-23T11:02:34.743Z,50.50
2019-04-23T11:12:37.064Z,49.00
2019-04-23T11:53:01.198Z,48.10
2019-04-23T12:03:07.418Z,49.30
2019-04-23T12:13:35.413Z,49.80
2019-04-23T12:43:47.393Z,49.50
2019-04-23T12:53:56.463Z,50.30
2019-04-23T13:03:59.409Z,49.90
2019-04-23T13:14:17.402Z,50.50
2019-04-23T13:24:40.768Z,51.00
2019-04-23T13:44:54.823Z,51.10
2019-04-23T14:05:24.035Z,50.60
2019-04-23T14:15:40.507Z,50.70
2019-04-23T14:25:46.756Z,50.70
2019-04-23T14:35:45.407Z,49.40
2019-04-23T15:06:44.617Z,49.20
2019-04-23T15:16:40.581Z,49.70
2019-04-23T15:47:05.284Z,49.90
2019-04-23T15:57:05.510Z,49.80
2019-04-23T16:06:43.592Z,49.70
2019-04-23T16:17:24.020Z,50.00
2019-04-23T16:27:16.749Z,50.10
2019-04-23T16:37:49.198Z,50.30
2019-04-23T16:47:36.884Z,50.20
2019-04-23T17:08:23.288Z,51.30
2019-04-23T17:18:08.852Z,51.20
2019-04-23T17:28:21.827Z,51.60
2019-04-23T17:38:23.043Z,51.90
2019-04-23T17:48:21.989Z,52.30
2019-04-23T17:58:34.318Z,52.70
2019-04-23T18:29:12.671Z,54.70
2019-04-23T18:49:15.871Z,55.20
2019-04-23T18:59:24.786Z,55.40
2019-04-23T19:09:39.158Z,55.10
2019-04-23T19:19:42.006Z,55.40
2019-04-23T19:39:51.899Z,56.80
2019-04-23T19:49:58.912Z,56.60
2019-04-23T20:00:13.408Z,57.40
2019-04-23T20:10:12.379Z,58.00
2019-04-23T20:20:25.633Z,59.10
2019-04-23T20:31:50.498Z,60.50
2019-04-23T20:50:52.347Z,61.10
2019-04-23T21:01:26.956Z,61.60
2019-04-23T21:21:46.418Z,63.20
2019-04-23T21:31:55.550Z,63.90
2019-04-23T21:42:21.281Z,64.60
2019-04-23T21:52:30.374Z,65.10
2019-04-23T22:02:38.454Z,65.90
2019-04-23T22:12:54.676Z,66.40
2019-04-23T22:33:02.960Z,67.50
2019-04-23T22:43:15.038Z,68.40
2019-04-23T23:03:29.478Z,69.80
2019-04-23T23:13:46.663Z,70.40
2019-04-23T23:23:40.247Z,71.20
2019-04-23T23:33:47.480Z,72.00
2019-04-23T23:44:08.194Z,72.70
